createdAt,value
2024-01-21T00:01:46.951Z,62.66
2024-01-21T00:04:17.539Z,62.67
2024-01-21T00:06:48.008Z,62.31
2024-01-21T00:09:18.654Z,62.39
2024-01-21T00:11:49.303Z,62.12
2024-01-21T00:14:19.726Z,62.04
2024-01-21T00:16:50.132Z,61.95
2024-01-21T00:19:20.645Z,61.67
2024-01-21T00:21:51.151Z,61.76
2024-01-21T00:24:21.670Z,61.38
2024-01-21T00:26:52.174Z,61.43
2024-01-21T00:29:22.630Z,61.46
2024-01-21T00:31:53.193Z,61.23
2024-01-21T00:34:24.174Z,61.21
2024-01-21T00:36:55.468Z,61.08
2024-01-21T00:39:25.942Z,61.00
2024-01-21T00:42:04.446Z,60.66
2024-01-21T00:44:39.652Z,60.53
2024-01-21T00:47:10.036Z,60.27
2024-01-21T00:49:43.309Z,60.09
2024-01-21T00:52:13.898Z,59.94
2024-01-21T00:54:44.426Z,59.95
2024-01-21T00:57:15.112Z,59.78
2024-01-21T00:59:45.493Z,59.67
2024-01-21T01:02:16.047Z,59.55
2024-01-21T01:04:46.861Z,59.37
2024-01-21T01:07:17.494Z,59.28
2024-01-21T01:09:48.056Z,59.21
2024-01-21T01:12:19.188Z,59.07
2024-01-21T01:14:49.757Z,58.79
2024-01-21T01:17:20.182Z,58.36
2024-01-21T01:19:50.794Z,58.15
2024-01-21T01:22:21.338Z,57.74
2024-01-21T01:24:51.822Z,57.18
2024-01-21T01:27:22.311Z,56.71
2024-01-21T01:29:52.877Z,56.48
2024-01-21T01:32:23.401Z,56.13
2024-01-21T01:34:56.319Z,56.32
2024-01-21T01:37:26.994Z,56.30
2024-01-21T01:39:57.751Z,56.44
2024-01-21T01:42:28.290Z,56.46
2024-01-21T01:44:58.762Z,56.76
2024-01-21T01:47:29.187Z,56.73
2024-01-21T01:50:00.676Z,56.75
2024-01-21T01:52:31.897Z,56.98
2024-01-21T01:55:02.647Z,57.09
2024-01-21T01:57:33.934Z,57.12
2024-01-21T02:00:04.734Z,57.15
2024-01-21T02:02:35.829Z,57.23
2024-01-21T02:05:07.602Z,57.01
2024-01-21T02:07:38.129Z,56.91
2024-01-21T02:10:10.040Z,56.72
2024-01-21T02:12:45.878Z,57.01
2024-01-21T02:15:16.472Z,56.81
2024-01-21T02:17:46.991Z,56.86
2024-01-21T02:20:17.606Z,56.80
2024-01-21T02:22:48.968Z,56.63
2024-01-21T02:25:19.623Z,56.62
2024-01-21T02:27:50.114Z,56.70
2024-01-21T02:30:20.872Z,56.75
2024-01-21T02:32:51.596Z,56.75
2024-01-21T02:35:22.060Z,56.63
2024-01-21T02:37:52.459Z,56.92
2024-01-21T02:40:23.183Z,56.96
2024-01-21T02:42:53.717Z,56.84
2024-01-21T02:45:24.332Z,56.95
2024-01-21T02:47:55.109Z,56.93
2024-01-21T02:50:25.621Z,56.85
2024-01-21T02:52:56.097Z,56.75
2024-01-21T02:55:26.557Z,56.95
2024-01-21T02:57:56.992Z,56.80
2024-01-21T03:00:27.541Z,56.93
2024-01-21T03:02:58.594Z,56.85
2024-01-21T03:05:29.158Z,56.82
2024-01-21T03:07:59.625Z,56.65
2024-01-21T03:10:30.260Z,56.84
2024-01-21T03:13:20.742Z,56.74
2024-01-21T03:15:51.252Z,56.88
2024-01-21T03:18:21.992Z,56.58
2024-01-21T03:20:52.406Z,56.23
2024-01-21T03:23:22.833Z,56.32
2024-01-21T03:25:53.237Z,55.98
2024-01-21T03:28:25.679Z,55.86
2024-01-21T03:30:56.277Z,55.77
2024-01-21T03:33:28.144Z,55.68
2024-01-21T03:35:58.667Z,55.64
2024-01-21T03:38:29.096Z,55.68
2024-01-21T03:40:59.518Z,55.69
2024-01-21T03:43:29.920Z,55.55
2024-01-21T03:46:00.388Z,55.47
2024-01-21T03:48:31.037Z,55.37
2024-01-21T03:51:01.784Z,55.38
2024-01-21T03:53:32.181Z,55.35
2024-01-21T03:56:02.620Z,55.18
2024-01-21T03:58:33.024Z,55.51
2024-01-21T04:01:03.893Z,55.40
2024-01-21T04:03:35.099Z,55.56
2024-01-21T04:06:06.438Z,55.63
2024-01-21T04:08:36.844Z,55.64
2024-01-21T04:11:07.817Z,55.65
2024-01-21T04:13:38.226Z,55.65
2024-01-21T04:16:09.696Z,55.63
2024-01-21T04:18:41.987Z,55.80
2024-01-21T04:21:12.694Z,55.65
2024-01-21T04:23:43.497Z,56.04
2024-01-21T04:26:13.951Z,56.50
2024-01-21T04:28:44.367Z,56.90
2024-01-21T04:31:14.807Z,57.44
2024-01-21T04:33:45.297Z,58.04
2024-01-21T04:36:20.364Z,58.22
2024-01-21T04:38:50.943Z,58.55
2024-01-21T04:41:21.645Z,58.37
2024-01-21T04:43:52.041Z,58.18
2024-01-21T04:46:22.462Z,57.97
2024-01-21T04:48:54.032Z,57.84
2024-01-21T04:51:24.574Z,57.86
2024-01-21T04:53:55.149Z,57.62
2024-01-21T04:56:25.706Z,57.44
2024-01-21T04:58:57.990Z,57.34
2024-01-21T05:01:28.791Z,57.31
2024-01-21T05:03:59.277Z,57.29
2024-01-21T05:06:29.835Z,56.86
2024-01-21T05:09:00.292Z,56.76
2024-01-21T05:11:31.362Z,56.22
2024-01-21T05:14:01.784Z,55.70
2024-01-21T05:16:32.232Z,55.59
2024-01-21T05:19:02.876Z,55.76
2024-01-21T05:21:33.505Z,55.67
2024-01-21T05:24:06.040Z,55.62
2024-01-21T05:26:45.851Z,54.32
2024-01-21T05:29:14.791Z,53.75
2024-01-21T05:31:45.248Z,53.49
2024-01-21T05:34:16.035Z,53.50
2024-01-21T05:36:47.066Z,53.21
2024-01-21T05:39:17.705Z,52.74
2024-01-21T05:42:04.052Z,52.41
2024-01-21T05:44:34.649Z,52.27
2024-01-21T05:47:05.503Z,52.03
2024-01-21T05:49:36.045Z,51.72
2024-01-21T05:52:07.327Z,51.47
2024-01-21T05:54:37.747Z,51.25
2024-01-21T05:57:08.873Z,51.02
2024-01-21T05:59:39.469Z,50.66
2024-01-21T06:02:11.966Z,50.75
2024-01-21T06:04:42.700Z,50.76
2024-01-21T06:07:13.256Z,50.88
2024-01-21T06:09:43.859Z,50.78
2024-01-21T06:12:14.417Z,50.55
2024-01-21T06:14:45.582Z,50.41
2024-01-21T06:17:15.976Z,50.33
2024-01-21T06:19:46.403Z,50.13
2024-01-21T06:22:16.769Z,49.61
2024-01-21T06:24:47.816Z,49.38
2024-01-21T06:27:18.289Z,48.91
2024-01-21T06:29:48.909Z,48.26
2024-01-21T06:32:19.526Z,48.10
2024-01-21T06:34:50.021Z,47.75
2024-01-21T06:37:20.860Z,47.41
2024-01-21T06:39:57.476Z,46.62
2024-01-21T06:42:33.452Z,46.25
2024-01-21T06:45:03.947Z,45.87
2024-01-21T06:47:34.420Z,45.88
2024-01-21T06:50:05.456Z,45.57
2024-01-21T06:52:35.846Z,45.89
2024-01-21T06:55:07.677Z,46.06
2024-01-21T06:57:40.977Z,46.04
2024-01-21T07:00:14.497Z,45.90
2024-01-21T07:02:44.902Z,45.59
2024-01-21T07:05:15.464Z,45.59
2024-01-21T07:07:47.035Z,45.34
2024-01-21T07:10:19.344Z,43.95
2024-01-21T07:12:49.818Z,43.89
2024-01-21T07:15:20.692Z,43.85
2024-01-21T07:17:51.290Z,43.51
2024-01-21T07:20:21.725Z,43.00
2024-01-21T07:22:52.142Z,42.62
2024-01-21T07:25:22.610Z,41.99
2024-01-21T07:27:53.276Z,41.53
2024-01-21T07:30:23.874Z,41.44
2024-01-21T07:32:55.721Z,41.35
2024-01-21T07:35:26.979Z,41.39
2024-01-21T07:37:57.355Z,41.51
2024-01-21T07:40:28.309Z,40.88
2024-01-21T07:42:58.698Z,41.03
2024-01-21T07:45:29.951Z,40.22
2024-01-21T07:48:00.658Z,40.00
2024-01-21T07:50:31.120Z,39.74
2024-01-21T07:53:01.561Z,39.11
2024-01-21T07:55:31.937Z,38.97
2024-01-21T07:58:03.419Z,38.54
2024-01-21T08:00:35.078Z,38.59
2024-01-21T08:03:06.814Z,38.39
2024-01-21T08:05:37.242Z,38.89
2024-01-21T08:08:08.604Z,38.17
2024-01-21T08:10:38.980Z,38.37
2024-01-21T08:13:09.412Z,38.62
2024-01-21T08:15:39.773Z,37.93
2024-01-21T08:18:10.209Z,38.31
2024-01-21T08:20:40.958Z,37.93
2024-01-21T08:23:11.351Z,38.23
2024-01-21T08:25:42.182Z,38.50
2024-01-21T08:28:12.509Z,37.99
2024-01-21T08:30:43.088Z,37.75
2024-01-21T08:33:13.804Z,37.92
2024-01-21T08:35:44.329Z,37.88
2024-01-21T08:38:17.824Z,38.20
2024-01-21T08:40:48.174Z,38.00
2024-01-21T08:43:18.549Z,38.05
2024-01-21T08:45:49.087Z,37.81
2024-01-21T08:48:19.785Z,37.37
2024-01-21T08:50:50.387Z,37.62
2024-01-21T08:53:22.031Z,37.51
2024-01-21T08:55:52.646Z,37.40
2024-01-21T08:58:23.346Z,36.95
2024-01-21T09:00:54.195Z,37.80
2024-01-21T09:03:24.959Z,37.90
2024-01-21T09:05:55.725Z,37.57
2024-01-21T09:08:26.239Z,38.18
2024-01-21T09:10:56.935Z,38.26
2024-01-21T09:13:27.373Z,38.29
2024-01-21T09:15:58.222Z,38.01
2024-01-21T09:18:28.940Z,37.69
2024-01-21T09:21:00.600Z,38.06
2024-01-21T09:23:31.054Z,38.73
2024-01-21T09:26:01.472Z,39.02
2024-01-21T09:28:31.913Z,38.66
2024-01-21T09:31:02.763Z,38.20
2024-01-21T09:33:33.445Z,38.61
2024-01-21T09:36:04.354Z,38.55
2024-01-21T09:38:34.807Z,38.82
2024-01-21T09:41:13.902Z,38.67
2024-01-21T09:43:44.758Z,38.74
2024-01-21T09:46:17.089Z,39.40
2024-01-21T09:48:48.832Z,39.09
2024-01-21T09:51:22.191Z,38.92
2024-01-21T09:53:54.761Z,39.65
2024-01-21T09:56:28.086Z,39.37
2024-01-21T09:58:59.095Z,39.65
2024-01-21T10:01:31.060Z,38.96
2024-01-21T10:04:03.856Z,39.16
2024-01-21T10:06:37.342Z,39.17
2024-01-21T10:09:22.883Z,38.77
2024-01-21T10:12:01.497Z,39.22
2024-01-21T10:14:34.813Z,39.55
2024-01-21T10:17:10.606Z,39.91
2024-01-21T10:19:43.419Z,39.73
2024-01-21T10:22:17.032Z,39.89
2024-01-21T10:24:50.433Z,40.18
2024-01-21T10:27:23.483Z,40.13
2024-01-21T10:29:55.822Z,40.05
2024-01-21T10:32:30.101Z,39.67
2024-01-21T10:35:02.132Z,40.06
2024-01-21T10:37:38.175Z,39.98
2024-01-21T10:40:13.222Z,40.14
2024-01-21T10:42:54.496Z,39.99
2024-01-21T10:45:27.984Z,40.50
2024-01-21T10:48:01.664Z,40.46
2024-01-21T10:50:33.548Z,40.47
2024-01-21T10:53:06.734Z,40.81
2024-01-21T10:55:41.564Z,41.11
2024-01-21T10:58:13.396Z,41.42
2024-01-21T11:00:45.255Z,41.51
2024-01-21T11:03:33.089Z,41.62
2024-01-21T11:06:04.680Z,41.61
2024-01-21T11:08:36.912Z,41.95
2024-01-21T11:11:18.113Z,42.23
2024-01-21T11:13:50.923Z,42.41
2024-01-21T11:16:43.080Z,42.86
2024-01-21T11:19:19.497Z,42.91
2024-01-21T11:21:57.025Z,42.81
2024-01-21T11:24:33.792Z,43.06
2024-01-21T11:27:09.152Z,43.07
2024-01-21T11:29:41.405Z,43.05
2024-01-21T11:32:13.712Z,43.23
2024-01-21T11:34:47.350Z,43.15
2024-01-21T11:37:19.352Z,43.74
2024-01-21T11:39:52.116Z,43.73
2024-01-21T11:42:24.856Z,43.84
2024-01-21T11:45:05.583Z,44.18
2024-01-21T11:47:37.045Z,44.03
2024-01-21T11:50:09.714Z,43.72
2024-01-21T11:52:41.334Z,44.24
2024-01-21T11:55:12.784Z,44.18
2024-01-21T11:57:44.139Z,44.01
2024-01-21T12:00:18.344Z,43.90
2024-01-21T12:02:53.477Z,43.97
2024-01-21T12:05:26.263Z,44.12
2024-01-21T12:08:00.021Z,44.32
2024-01-21T12:10:32.186Z,44.30
2024-01-21T12:13:04.229Z,44.49
2024-01-21T12:15:39.756Z,44.63
2024-01-21T12:18:11.759Z,44.81
2024-01-21T12:20:43.886Z,44.87
2024-01-21T12:23:25.564Z,45.15
2024-01-21T12:25:59.865Z,45.27
2024-01-21T12:28:32.280Z,45.44
2024-01-21T12:31:04.057Z,45.55
2024-01-21T12:33:35.703Z,45.53
2024-01-21T12:36:08.056Z,45.86
2024-01-21T12:38:40.025Z,45.84
2024-01-21T12:41:11.651Z,46.21
2024-01-21T12:43:44.953Z,46.24
2024-01-21T12:46:16.068Z,46.56
2024-01-21T12:48:47.588Z,47.01
2024-01-21T12:51:24.804Z,47.05
2024-01-21T12:53:57.539Z,47.41
2024-01-21T12:56:29.063Z,47.58
2024-01-21T12:59:00.103Z,47.78
2024-01-21T13:01:30.628Z,47.83
2024-01-21T13:04:01.675Z,47.93
2024-01-21T13:06:35.139Z,47.91
2024-01-21T13:09:08.512Z,48.04
2024-01-21T13:11:40.690Z,47.80
2024-01-21T13:14:19.552Z,48.08
2024-01-21T13:16:56.873Z,48.26
2024-01-21T13:19:29.793Z,48.79
2024-01-21T13:22:07.854Z,49.44
2024-01-21T13:24:37.644Z,50.33
2024-01-21T13:27:12.857Z,50.86
2024-01-21T13:30:01.323Z,51.03
2024-01-21T13:32:33.568Z,50.88
2024-01-21T13:35:07.585Z,51.23
2024-01-21T13:37:40.063Z,51.23
2024-01-21T13:40:13.176Z,51.50
2024-01-21T13:42:43.687Z,51.31
2024-01-21T13:45:15.502Z,51.64
2024-01-21T13:47:46.062Z,51.52
2024-01-21T13:50:16.799Z,51.65
2024-01-21T13:52:47.236Z,51.73
2024-01-21T13:55:17.915Z,51.92
2024-01-21T13:57:48.395Z,52.26
2024-01-21T14:00:23.580Z,52.31
2024-01-21T14:02:57.642Z,52.77
2024-01-21T14:05:29.204Z,52.63
2024-01-21T14:08:00.013Z,53.06
2024-01-21T14:10:30.471Z,53.22
2024-01-21T14:13:01.289Z,53.51
2024-01-21T14:15:31.938Z,54.25
2024-01-21T14:18:05.603Z,54.61
2024-01-21T14:20:36.133Z,55.10
2024-01-21T14:23:07.060Z,55.96
2024-01-21T14:25:42.308Z,56.76
2024-01-21T14:28:12.971Z,57.48
2024-01-21T14:30:43.499Z,58.36
2024-01-21T14:33:14.019Z,58.75
2024-01-21T14:35:44.809Z,59.27
2024-01-21T14:38:15.414Z,59.32
2024-01-21T14:40:47.738Z,59.79
2024-01-21T14:43:18.401Z,60.16
2024-01-21T14:45:49.067Z,60.56
2024-01-21T14:48:20.329Z,60.75
2024-01-21T14:50:50.831Z,60.80
2024-01-21T14:53:21.676Z,61.28
2024-01-21T14:55:52.132Z,61.67
2024-01-21T14:58:23.052Z,61.77
2024-01-21T15:00:53.558Z,61.76
2024-01-21T15:03:24.135Z,61.65
2024-01-21T15:05:54.673Z,62.04
2024-01-21T15:08:25.391Z,62.47
2024-01-21T15:10:56.470Z,62.42
2024-01-21T15:13:32.273Z,63.00
2024-01-21T15:16:02.724Z,62.99
2024-01-21T15:18:34.913Z,63.27
2024-01-21T15:21:05.992Z,63.23
2024-01-21T15:23:36.383Z,63.44
2024-01-21T15:26:07.740Z,63.55
2024-01-21T15:28:38.253Z,64.07
2024-01-21T15:31:08.788Z,63.68
2024-01-21T15:33:39.810Z,63.79
2024-01-21T15:36:10.708Z,63.95
2024-01-21T15:38:41.297Z,64.19
2024-01-21T15:41:11.886Z,64.19
2024-01-21T15:43:42.375Z,64.19
2024-01-21T15:46:12.795Z,64.12
2024-01-21T15:48:43.355Z,63.81
2024-01-21T15:51:15.581Z,63.62
2024-01-21T15:53:46.261Z,63.54
2024-01-21T15:56:16.748Z,63.51
2024-01-21T15:58:47.216Z,63.18
2024-01-21T16:01:17.869Z,63.14
2024-01-21T16:03:49.711Z,63.14
2024-01-21T16:06:20.403Z,63.27
2024-01-21T16:08:51.079Z,63.13
2024-01-21T16:11:21.875Z,63.72
2024-01-21T16:13:53.041Z,63.63
2024-01-21T16:16:23.523Z,63.89
2024-01-21T16:18:54.112Z,64.04
2024-01-21T16:21:24.761Z,64.32
2024-01-21T16:23:55.355Z,64.66
2024-01-21T16:26:26.704Z,64.67
2024-01-21T16:28:57.618Z,64.94
2024-01-21T16:31:28.049Z,65.28
2024-01-21T16:33:58.578Z,65.49
2024-01-21T16:36:29.098Z,65.94
2024-01-21T16:39:00.331Z,66.37
2024-01-21T16:41:31.081Z,66.55
2024-01-21T16:44:03.170Z,66.69
2024-01-21T16:46:33.946Z,66.85
2024-01-21T16:49:05.279Z,67.47
2024-01-21T16:51:45.177Z,67.59
2024-01-21T16:54:16.633Z,67.80
2024-01-21T16:56:47.963Z,68.03
2024-01-21T16:59:18.557Z,68.61
2024-01-21T17:01:57.885Z,68.87
2024-01-21T17:04:31.890Z,68.83
2024-01-21T17:09:37.626Z,69.00
2024-01-21T17:12:21.040Z,69.44
2024-01-21T17:14:51.517Z,69.76
2024-01-21T17:17:24.030Z,69.77
2024-01-21T17:19:54.534Z,70.16
2024-01-21T17:22:25.364Z,69.86
2024-01-21T17:24:55.711Z,69.99
2024-01-21T17:27:26.044Z,70.16
2024-01-21T17:29:58.623Z,70.37
2024-01-21T17:32:29.212Z,70.37
2024-01-21T17:34:59.645Z,70.62
2024-01-21T17:37:30.105Z,70.79
2024-01-21T17:40:00.560Z,70.86
2024-01-21T17:42:30.983Z,70.74
2024-01-21T17:45:03.684Z,70.85
2024-01-21T17:47:34.306Z,70.62
2024-01-21T17:50:06.455Z,70.69
2024-01-21T17:52:37.854Z,70.33
2024-01-21T17:55:10.488Z,70.48
2024-01-21T17:57:42.007Z,70.38
2024-01-21T18:00:15.533Z,70.79
2024-01-21T18:02:47.163Z,70.78
2024-01-21T18:05:18.450Z,70.90
2024-01-21T18:07:48.920Z,70.94
2024-01-21T18:10:19.504Z,71.15
2024-01-21T18:12:50.055Z,71.25
2024-01-21T18:15:21.474Z,71.37
2024-01-21T18:17:51.963Z,71.44
2024-01-21T18:20:22.915Z,71.86
2024-01-21T18:22:53.378Z,71.71
2024-01-21T18:25:24.498Z,72.04
2024-01-21T18:27:57.727Z,72.00
2024-01-21T18:30:28.488Z,72.16
2024-01-21T18:32:59.924Z,72.32
2024-01-21T18:35:30.789Z,72.54
2024-01-21T18:38:01.904Z,72.74
2024-01-21T18:40:32.387Z,72.68
2024-01-21T18:43:02.804Z,73.00
2024-01-21T18:45:33.233Z,72.99
2024-01-21T18:48:04.519Z,73.11
2024-01-21T18:50:35.695Z,73.24
2024-01-21T18:53:06.489Z,73.25
2024-01-21T18:55:38.573Z,73.72
2024-01-21T18:58:15.105Z,73.97
2024-01-21T19:00:49.204Z,73.77
2024-01-21T19:03:20.155Z,74.10
2024-01-21T19:05:50.697Z,74.27
2024-01-21T19:08:21.250Z,73.94
2024-01-21T19:10:51.670Z,74.09
2024-01-21T19:13:22.105Z,74.25
2024-01-21T19:15:52.581Z,74.59
2024-01-21T19:18:23.542Z,74.40
2024-01-21T19:20:54.177Z,74.25
2024-01-21T19:23:24.682Z,74.20
2024-01-21T19:25:55.470Z,74.15
2024-01-21T19:28:26.555Z,74.34
2024-01-21T19:30:57.601Z,74.48
2024-01-21T19:33:30.799Z,74.48
2024-01-21T19:36:03.155Z,74.47
2024-01-21T19:38:34.461Z,74.67
2024-01-21T19:41:05.629Z,74.55
2024-01-21T19:43:38.554Z,74.83
2024-01-21T19:46:09.687Z,74.43
2024-01-21T19:48:42.010Z,74.62
2024-01-21T19:51:15.860Z,74.88
2024-01-21T19:53:46.413Z,74.90
2024-01-21T19:56:16.989Z,74.91
2024-01-21T19:58:47.830Z,75.23
2024-01-21T20:01:18.665Z,75.10
2024-01-21T20:03:49.364Z,75.13
2024-01-21T20:06:20.050Z,75.25
2024-01-21T20:08:50.656Z,74.84
2024-01-21T20:11:21.630Z,75.18
2024-01-21T20:13:52.337Z,75.04
2024-01-21T20:16:22.826Z,74.90
2024-01-21T20:18:53.697Z,75.08
2024-01-21T20:21:24.529Z,75.18
2024-01-21T20:23:56.133Z,75.11
2024-01-21T20:26:26.627Z,75.40
2024-01-21T20:28:57.264Z,75.33
2024-01-21T20:31:28.008Z,75.38
2024-01-21T20:33:58.744Z,75.25
2024-01-21T20:36:29.526Z,75.45
2024-01-21T20:39:00.319Z,75.61
2024-01-21T20:41:31.292Z,75.68
2024-01-21T20:44:02.702Z,76.00
2024-01-21T20:46:33.142Z,76.23
2024-01-21T20:49:03.675Z,76.57
2024-01-21T20:51:36.015Z,76.84
2024-01-21T20:54:06.632Z,76.58
2024-01-21T20:56:37.225Z,76.70
2024-01-21T20:59:07.696Z,77.03
2024-01-21T21:01:38.201Z,77.18
2024-01-21T21:04:08.991Z,77.23
2024-01-21T21:06:40.409Z,77.37
2024-01-21T21:09:13.267Z,77.61
2024-01-21T21:11:43.806Z,77.56
2024-01-21T21:14:14.425Z,78.28
2024-01-21T21:16:45.574Z,78.80
2024-01-21T21:19:16.513Z,78.98
2024-01-21T21:21:47.427Z,79.10
2024-01-21T21:24:18.846Z,79.16
2024-01-21T21:26:49.389Z,79.48
2024-01-21T21:29:19.954Z,79.83
2024-01-21T21:31:50.335Z,79.98
2024-01-21T21:34:20.807Z,79.96
2024-01-21T21:36:51.265Z,80.06
2024-01-21T21:39:23.884Z,80.31
2024-01-21T21:41:54.417Z,80.24
2024-01-21T21:44:25.180Z,80.10
2024-01-21T21:46:57.917Z,80.64
2024-01-21T21:49:29.282Z,80.59
2024-01-21T21:52:00.278Z,80.67
2024-01-21T21:54:31.958Z,80.90
2024-01-21T21:57:03.343Z,81.13
2024-01-21T21:59:34.183Z,81.20
2024-01-21T22:02:05.419Z,81.38
2024-01-21T22:04:36.288Z,81.47
2024-01-21T22:07:07.594Z,81.43
2024-01-21T22:09:38.145Z,81.32
2024-01-21T22:12:11.443Z,81.20
2024-01-21T22:14:42.622Z,81.37
2024-01-21T22:17:13.105Z,81.30
2024-01-21T22:19:44.146Z,81.35
2024-01-21T22:22:15.143Z,81.22
2024-01-21T22:24:46.184Z,81.32
2024-01-21T22:27:18.588Z,81.29
2024-01-21T22:29:49.548Z,81.22
2024-01-21T22:32:20.071Z,81.35
2024-01-21T22:34:50.569Z,81.39
2024-01-21T22:37:20.995Z,81.50
2024-01-21T22:39:53.934Z,81.39
2024-01-21T22:42:24.331Z,81.48
2024-01-21T22:44:54.814Z,81.48
2024-01-21T22:47:25.453Z,81.49
2024-01-21T22:49:56.249Z,81.74
2024-01-21T22:52:26.999Z,81.91
2024-01-21T22:54:57.417Z,81.75
2024-01-21T22:57:27.848Z,81.84
2024-01-21T22:59:58.734Z,81.77
2024-01-21T23:02:29.569Z,81.69
2024-01-21T23:05:01.825Z,81.45
2024-01-21T23:07:33.359Z,81.44
2024-01-21T23:10:03.969Z,81.86
2024-01-21T23:12:34.413Z,81.81
2024-01-21T23:15:05.578Z,81.74
2024-01-21T23:17:36.112Z,81.76
2024-01-21T23:20:09.238Z,81.61
2024-01-21T23:22:39.670Z,81.51
2024-01-21T23:25:11.476Z,81.29
2024-01-21T23:27:41.926Z,81.11
2024-01-21T23:30:12.962Z,81.03
2024-01-21T23:32:43.824Z,81.11
2024-01-21T23:35:14.888Z,81.13
2024-01-21T23:37:45.262Z,81.10
2024-01-21T23:40:16.406Z,81.35
2024-01-21T23:42:46.863Z,81.44
2024-01-21T23:45:17.614Z,81.27
2024-01-21T23:47:48.398Z,81.59
2024-01-21T23:50:19.578Z,81.64
2024-01-21T23:52:50.019Z,81.79
2024-01-21T23:55:20.519Z,81.85
2024-01-21T23:57:51.007Z,81.83
